Time;durP1;ratioP1;P1;durP2;ratioP2;P2;SDS_P1;SDS_P2;PMS_P1;PMS_P2;Temp;Humidity;BMP_temperature;BMP_pressure;BME280_temperature;BME280_humidity;BME280_pressure;Samples;Min_cycle;Max_cycle;Signal;HPM_P1;HPM_P2
2022/09/19 00:02:21;;;;;;;0.20;0.03;;;9.00;99.90;;;;;;5016273;28;20501;-88
2022/09/19 00:04:46;;;;;;;0.08;0.00;;;9.00;99.90;;;;;;5015929;28;20026;-88
2022/09/19 00:07:12;;;;;;;0.00;0.00;;;8.90;99.90;;;;;;5027830;28;20018;-88
2022/09/19 00:09:37;;;;;;;0.00;0.00;;;9.00;99.90;;;;;;5019785;28;20037;-88
2022/09/19 00:12:03;;;;;;;0.00;0.00;;;9.00;99.90;;;;;;5027637;28;20115;-88
2022/09/19 00:14:32;;;;;;;0.00;0.00;;;9.00;99.90;;;;;;5016407;28;20025;-88
2022/09/19 00:17:07;;;;;;;0.00;0.00;;;9.00;99.90;;;;;;5018583;28;20022;-88
2022/09/19 00:19:33;;;;;;;0.00;0.00;;;9.00;99.90;;;;;;5007679;28;20009;-87
2022/09/19 00:22:01;;;;;;;0.00;0.00;;;8.90;99.90;;;;;;5012294;28;20085;-88
2022/09/19 00:24:46;;;;;;;1.35;0.35;;;8.90;99.90;;;;;;5016135;28;20060;-88
2022/09/19 00:27:15;;;;;;;0.00;0.00;;;8.90;99.90;;;;;;5008346;28;20027;-87
2022/09/19 00:29:42;;;;;;;0.00;0.00;;;8.90;99.90;;;;;;5027761;28;20028;-87
2022/09/19 00:32:12;;;;;;;0.00;0.00;;;8.90;99.90;;;;;;5022083;28;20018;-87
2022/09/19 00:34:59;;;;;;;0.40;0.00;;;9.20;99.90;;;;;;5033752;28;20047;-87
2022/09/19 00:37:25;;;;;;;0.00;0.00;;;8.80;99.90;;;;;;5040974;28;20450;-87
2022/09/19 00:39:52;;;;;;;0.00;0.00;;;8.70;99.90;;;;;;5023504;28;20042;-88
2022/09/19 00:42:21;;;;;;;0.00;0.00;;;8.70;99.90;;;;;;5018526;28;20053;-87
2022/09/19 00:45:02;;;;;;;0.00;0.00;;;8.70;99.90;;;;;;5009373;28;20449;-88
2022/09/19 00:47:39;;;;;;;0.08;0.00;;;9.20;99.90;;;;;;5012703;28;20033;-88
2022/09/19 00:50:21;;;;;;;0.00;0.00;;;8.70;99.90;;;;;;5018558;28;20117;-87
2022/09/19 00:52:54;;;;;;;0.00;0.00;;;8.60;99.90;;;;;;5020817;28;20033;-88
2022/09/19 00:55:20;;;;;;;0.00;0.00;;;8.50;99.90;;;;;;5025201;28;20468;-88
2022/09/19 00:58:01;;;;;;;0.03;0.00;;;8.40;99.90;;;;;;5012027;28;20042;-88
2022/09/19 01:00:27;;;;;;;0.00;0.00;;;8.40;99.90;;;;;;5014883;28;20025;-87
2022/09/19 01:03:07;;;;;;;0.00;0.00;;;8.40;99.90;;;;;;5016189;28;20026;-87
2022/09/19 01:05:48;;;;;;;0.00;0.00;;;8.40;99.90;;;;;;5017185;28;20082;-87
2022/09/19 01:08:45;;;;;;;0.20;0.00;;;8.40;99.90;;;;;;5010186;28;20061;-87
2022/09/19 01:11:49;;;;;;;0.00;0.00;;;8.30;99.90;;;;;;5008089;28;20022;-88
2022/09/19 01:14:39;;;;;;;0.05;0.00;;;8.30;99.90;;;;;;5011327;28;20112;-87
2022/09/19 01:17:20;;;;;;;0.13;0.03;;;8.30;99.90;;;;;;5017699;28;20664;-87
2022/09/19 01:20:21;;;;;;;0.10;0.00;;;8.20;99.90;;;;;;5012659;28;20026;-88
2022/09/19 01:23:05;;;;;;;0.00;0.00;;;8.20;99.90;;;;;;5019080;28;20033;-88
2022/09/19 01:25:49;;;;;;;0.13;0.00;;;8.20;99.90;;;;;;5013572;28;20013;-90
2022/09/19 01:28:29;;;;;;;0.00;0.00;;;8.10;99.90;;;;;;5024594;28;20022;-90
2022/09/19 01:31:19;;;;;;;0.10;0.00;;;8.10;99.90;;;;;;5028143;28;20498;-88
2022/09/19 01:34:17;;;;;;;0.00;0.00;;;8.10;99.90;;;;;;5016312;28;20065;-88
2022/09/19 01:37:05;;;;;;;0.00;0.00;;;8.00;99.90;;;;;;5015137;28;20390;-88
2022/09/19 01:39:34;;;;;;;0.00;0.00;;;8.00;99.90;;;;;;5001975;28;20372;-88
2022/09/19 01:42:01;;;;;;;0.10;0.00;;;8.20;99.90;;;;;;5016783;28;20685;-89
2022/09/19 01:44:29;;;;;;;0.08;0.00;;;7.90;99.90;;;;;;5026507;28;20482;-88
2022/09/19 01:47:08;;;;;;;0.00;0.00;;;7.90;99.90;;;;;;5011773;28;20064;-88
2022/09/19 01:49:51;;;;;;;1.77;0.00;;;7.90;99.90;;;;;;5014863;28;20017;-88
2022/09/19 01:52:32;;;;;;;0.00;0.00;;;7.90;99.90;;;;;;5013122;28;20036;-88
2022/09/19 01:55:15;;;;;;;0.10;0.00;;;7.80;99.90;;;;;;5017313;28;20029;-88
2022/09/19 01:58:00;;;;;;;0.00;0.00;;;7.80;99.90;;;;;;5005443;28;20096;-88
2022/09/19 02:00:27;;;;;;;0.20;0.00;;;7.70;99.90;;;;;;5004418;28;20165;-88
2022/09/19 02:03:08;;;;;;;0.80;0.05;;;7.80;99.90;;;;;;5017086;28;20033;-89
2022/09/19 02:05:35;;;;;;;0.32;0.00;;;7.80;99.90;;;;;;5020133;28;20021;-88
2022/09/19 02:08:22;;;;;;;0.00;0.00;;;7.80;99.90;;;;;;5024537;28;20366;-88
2022/09/19 02:11:04;;;;;;;1.65;0.13;;;7.80;99.90;;;;;;5016274;28;20054;-88
2022/09/19 02:13:35;;;;;;;0.00;0.00;;;7.80;99.90;;;;;;5010046;28;20036;-88
2022/09/19 02:16:07;;;;;;;0.20;0.03;;;7.80;99.90;;;;;;5022979;28;20029;-87
2022/09/19 02:18:46;;;;;;;0.10;0.03;;;7.80;99.90;;;;;;5020677;28;20360;-88
2022/09/19 02:21:18;;;;;;;0.13;0.10;;;7.80;99.90;;;;;;5016292;28;20034;-88
2022/09/19 02:23:48;;;;;;;0.10;0.10;;;7.50;99.90;;;;;;5022080;28;20052;-88
2022/09/19 02:26:19;;;;;;;0.10;0.00;;;7.90;99.90;;;;;;5020811;28;20119;-88
2022/09/19 02:28:48;;;;;;;0.10;0.05;;;7.80;99.90;;;;;;5016808;28;20025;-87
2022/09/19 02:31:14;;;;;;;0.20;0.10;;;8.50;99.90;;;;;;5023713;28;20738;-90
2022/09/19 02:33:46;;;;;;;0.25;0.10;;;7.90;99.90;;;;;;5025757;28;20478;-88
2022/09/19 02:36:46;;;;;;;0.13;0.10;;;7.90;99.90;;;;;;5014788;28;20033;-88
2022/09/19 02:39:18;;;;;;;0.40;0.20;;;7.50;99.90;;;;;;5020327;28;20026;-88
2022/09/19 02:41:51;;;;;;;;;;;7.80;99.90;;;;;;5021540;28;20140;-88
2022/09/19 02:44:43;;;;;;;0.10;0.00;;;7.80;99.90;;;;;;5026357;28;19991;-88
2022/09/19 02:47:20;;;;;;;0.35;0.10;;;7.80;99.90;;;;;;4976892;28;20482;-87
2022/09/19 02:49:57;;;;;;;0.28;0.08;;;7.80;99.90;;;;;;5017072;28;20045;-87
2022/09/19 02:52:33;;;;;;;0.10;0.00;;;7.80;99.90;;;;;;5030316;28;20134;-87
2022/09/19 02:55:14;;;;;;;0.10;0.00;;;7.80;99.90;;;;;;5003558;28;20080;-88
2022/09/19 02:57:46;;;;;;;0.52;0.10;;;7.80;99.90;;;;;;5021673;28;20023;-87
2022/09/19 03:00:21;;;;;;;0.00;0.00;;;7.80;99.90;;;;;;5016920;28;20026;-87
2022/09/19 03:04:14;;;;;;;0.40;0.03;;;7.80;99.90;;;;;;5019228;28;20042;-88
2022/09/19 03:06:11;;;;;;;0.13;0.10;;;7.80;99.90;;;;;;5003738;28;20053;-87
2022/09/19 03:08:38;;;;;;;0.55;0.10;;;8.40;99.90;;;;;;5020951;28;20108;-88
2022/09/19 03:11:09;;;;;;;0.10;0.00;;;8.00;99.90;;;;;;5016611;28;20490;-87
2022/09/19 03:13:40;;;;;;;0.10;0.00;;;7.80;99.90;;;;;;5029967;28;20025;-88
2022/09/19 03:16:14;;;;;;;0.00;0.00;;;8.00;99.90;;;;;;5012017;28;20026;-87
2022/09/19 03:18:46;;;;;;;0.10;0.00;;;7.30;99.90;;;;;;5017139;28;20022;-88
2022/09/19 03:21:13;;;;;;;0.73;0.10;;;7.60;99.90;;;;;;5011753;28;20418;-87
2022/09/19 03:23:44;;;;;;;0.10;0.00;;;8.10;99.90;;;;;;5024815;28;20394;-88
2022/09/19 03:26:18;;;;;;;0.32;0.10;;;7.50;99.90;;;;;;5016858;28;20178;-88
2022/09/19 03:28:44;;;;;;;1.85;0.50;;;8.40;99.90;;;;;;5026665;28;20033;-87
2022/09/19 03:31:10;;;;;;;0.17;0.00;;;7.60;99.90;;;;;;5017018;28;20025;-87
2022/09/19 03:33:36;;;;;;;0.20;0.20;;;8.20;99.90;;;;;;5014476;28;20113;-87
2022/09/19 03:36:07;;;;;;;0.05;0.00;;;7.70;99.90;;;;;;5014438;28;20025;-87
2022/09/19 03:38:33;;;;;;;0.25;0.05;;;7.60;99.90;;;;;;5015124;28;20021;-89
2022/09/19 03:40:58;;;;;;;0.52;0.20;;;7.30;99.90;;;;;;5012145;23;20071;-84
2022/09/19 03:43:24;;;;;;;0.30;0.10;;;7.60;99.90;;;;;;5019160;28;20359;-84
2022/09/19 03:45:50;;;;;;;0.60;0.10;;;7.60;99.90;;;;;;5014559;28;20035;-84
2022/09/19 03:48:16;;;;;;;0.30;0.10;;;7.70;99.90;;;;;;5012066;28;20060;-84
2022/09/19 03:50:41;;;;;;;0.30;0.10;;;7.70;99.90;;;;;;4998439;28;20517;-84
2022/09/19 03:53:08;;;;;;;0.03;0.00;;;7.70;99.90;;;;;;5019833;28;20044;-84
2022/09/19 03:55:37;;;;;;;0.82;0.10;;;7.70;99.90;;;;;;5020112;28;20040;-84
2022/09/19 03:58:04;;;;;;;0.73;0.20;;;7.70;99.90;;;;;;5010135;28;20022;-84
2022/09/19 04:00:30;;;;;;;0.57;0.10;;;7.70;99.90;;;;;;5014492;28;20049;-84
2022/09/19 04:02:56;;;;;;;0.55;0.10;;;7.80;99.90;;;;;;5019976;28;20022;-84
2022/09/19 04:05:22;;;;;;;1.27;0.03;;;7.80;99.90;;;;;;5016718;28;20010;-84
2022/09/19 04:07:48;;;;;;;2.38;0.10;;;7.80;99.90;;;;;;5003386;28;20025;-84
2022/09/19 04:10:14;;;;;;;1.02;0.10;;;7.80;99.90;;;;;;5019510;28;20078;-84
2022/09/19 04:12:40;;;;;;;0.43;0.10;;;7.80;99.90;;;;;;5017140;28;20132;-84
2022/09/19 04:15:07;;;;;;;0.10;0.05;;;7.90;99.90;;;;;;5007349;28;20026;-85
2022/09/19 04:17:33;;;;;;;0.10;0.08;;;7.90;99.90;;;;;;5014280;28;20050;-84
2022/09/19 04:19:58;;;;;;;2.85;0.45;;;7.90;99.90;;;;;;5016782;28;20022;-84
2022/09/19 04:22:24;;;;;;;0.47;0.10;;;7.90;99.90;;;;;;5002248;28;20018;-84
2022/09/19 04:24:51;;;;;;;0.15;0.05;;;7.90;99.90;;;;;;5005480;28;20100;-83
2022/09/19 04:27:17;;;;;;;1.92;0.03;;;7.90;99.90;;;;;;5014771;28;20022;-83
2022/09/19 04:29:42;;;;;;;0.65;0.10;;;8.00;99.90;;;;;;5016844;28;20022;-83
2022/09/19 04:32:09;;;;;;;0.10;0.03;;;8.00;99.90;;;;;;5016406;28;20022;-84
2022/09/19 04:34:35;;;;;;;0.30;0.10;;;8.00;99.90;;;;;;5014709;28;20083;-84
2022/09/19 04:37:06;;;;;;;0.75;0.20;;;8.00;99.90;;;;;;5015724;28;20034;-84
2022/09/19 04:39:32;;;;;;;0.10;0.00;;;8.00;99.90;;;;;;5015236;28;20022;-84
2022/09/19 04:42:00;;;;;;;0.32;0.10;;;8.10;99.90;;;;;;5001289;28;20491;-84
2022/09/19 04:44:27;;;;;;;0.55;0.22;;;8.10;99.90;;;;;;4991260;28;20438;-84
2022/09/19 04:46:53;;;;;;;0.25;0.13;;;8.10;99.90;;;;;;5005952;28;20097;-84
2022/09/19 04:49:19;;;;;;;1.02;0.10;;;8.10;99.90;;;;;;4998013;28;20105;-84
2022/09/19 04:51:45;;;;;;;0.85;0.10;;;8.20;99.90;;;;;;4996155;28;20037;-84
2022/09/19 04:54:11;;;;;;;1.25;0.10;;;8.20;99.90;;;;;;5011757;28;20485;-84
2022/09/19 04:56:37;;;;;;;0.75;0.10;;;8.20;99.90;;;;;;5008797;28;20026;-84
2022/09/19 04:59:04;;;;;;;2.13;0.10;;;8.10;99.90;;;;;;4990967;28;20148;-84
2022/09/19 05:01:30;;;;;;;0.45;0.10;;;8.20;99.90;;;;;;4996865;28;20383;-84
2022/09/19 05:03:57;;;;;;;0.10;0.10;;;8.20;99.90;;;;;;5013408;28;20037;-84
2022/09/19 05:06:27;;;;;;;1.05;0.20;;;8.20;99.90;;;;;;5012455;28;20026;-83
2022/09/19 05:08:53;;;;;;;0.65;0.45;;;8.10;99.90;;;;;;5004623;28;20057;-83
2022/09/19 05:11:21;;;;;;;1.40;0.63;;;8.20;99.90;;;;;;5009860;28;20026;-83
2022/09/19 05:13:48;;;;;;;1.20;0.10;;;8.20;99.90;;;;;;5018562;28;20034;-84
2022/09/19 05:16:14;;;;;;;0.98;0.22;;;8.20;99.90;;;;;;5013091;28;20018;-84
2022/09/19 05:18:39;;;;;;;0.38;0.20;;;8.30;99.90;;;;;;5024557;28;20006;-84
2022/09/19 05:21:11;;;;;;;0.35;0.08;;;8.30;99.90;;;;;;5020413;28;20030;-83
2022/09/19 05:23:38;;;;;;;1.88;0.25;;;8.20;99.90;;;;;;5010474;28;20053;-84
2022/09/19 05:26:09;;;;;;;0.43;0.35;;;8.30;99.90;;;;;;5018021;28;20030;-83
2022/09/19 05:28:36;;;;;;;1.27;0.10;;;8.30;99.90;;;;;;5017567;28;20043;-84
2022/09/19 05:31:06;;;;;;;4.10;0.20;;;8.30;99.90;;;;;;5012575;28;20550;-84
2022/09/19 05:33:33;;;;;;;1.95;0.10;;;8.30;99.90;;;;;;5019020;28;20418;-84
2022/09/19 05:36:01;;;;;;;1.45;0.20;;;8.30;99.90;;;;;;5006647;28;20026;-84
2022/09/19 05:38:28;;;;;;;2.92;0.25;;;8.30;99.90;;;;;;5011881;28;20077;-84
2022/09/19 05:40:55;;;;;;;0.45;0.10;;;8.40;99.90;;;;;;5017479;28;20033;-83
2022/09/19 05:43:22;;;;;;;0.93;0.30;;;8.40;99.90;;;;;;5013131;28;20034;-83
2022/09/19 05:45:50;;;;;;;0.17;0.17;;;8.40;99.90;;;;;;5000293;28;20557;-84
2022/09/19 05:48:16;;;;;;;1.77;0.43;;;8.40;99.90;;;;;;5015888;28;20046;-83
2022/09/19 05:50:46;;;;;;;1.63;0.10;;;8.50;99.90;;;;;;5019350;28;20022;-83
2022/09/19 05:55:57;;;;;;;0.93;0.10;;;8.60;99.90;;;;;;5014534;28;20088;-83
2022/09/19 05:58:24;;;;;;;1.60;0.30;;;8.70;99.90;;;;;;5018967;28;20423;-83
2022/09/19 06:00:50;;;;;;;3.65;0.17;;;8.70;99.90;;;;;;5015503;28;20030;-83
2022/09/19 06:03:17;;;;;;;0.17;0.10;;;8.80;99.90;;;;;;5012957;28;20582;-84
2022/09/19 06:05:48;;;;;;;0.98;0.43;;;8.80;99.90;;;;;;5001045;28;20033;-84
2022/09/19 06:08:15;;;;;;;0.33;0.13;;;8.80;99.90;;;;;;5015767;28;20052;-82
2022/09/19 06:10:43;;;;;;;1.73;0.10;;;8.90;99.90;;;;;;5009565;28;20323;-83
2022/09/19 06:13:13;;;;;;;1.25;0.30;;;8.80;99.90;;;;;;5008652;28;20025;-83
2022/09/19 06:15:39;;;;;;;3.13;0.20;;;8.90;99.90;;;;;;5018608;28;20536;-83
2022/09/19 06:18:06;;;;;;;0.43;0.20;;;8.90;99.90;;;;;;5016005;28;20026;-83
2022/09/19 06:20:31;;;;;;;1.65;0.15;;;8.90;99.90;;;;;;5006563;28;20022;-83
2022/09/19 06:23:03;;;;;;;0.90;0.43;;;9.00;99.90;;;;;;5014335;28;20135;-83
2022/09/19 06:25:29;;;;;;;1.95;0.30;;;9.00;99.90;;;;;;5009315;28;20022;-83
2022/09/19 06:27:57;;;;;;;1.30;0.25;;;9.00;99.90;;;;;;5014801;28;20038;-83
2022/09/19 06:30:24;;;;;;;2.50;0.20;;;9.10;99.90;;;;;;5020015;28;20022;-83
2022/09/19 06:32:50;;;;;;;2.53;0.20;;;9.00;99.90;;;;;;5014011;28;20026;-84
2022/09/19 06:35:17;;;;;;;0.88;0.35;;;9.10;99.90;;;;;;5012577;28;20018;-83
2022/09/19 06:37:43;;;;;;;0.90;0.20;;;9.10;99.90;;;;;;5014640;28;20441;-83
2022/09/19 06:40:10;;;;;;;5.50;0.30;;;9.10;99.90;;;;;;4995420;28;20096;-84
2022/09/19 06:42:37;;;;;;;2.85;0.10;;;9.20;99.90;;;;;;5003038;28;20033;-84
2022/09/19 06:45:06;;;;;;;3.92;0.40;;;9.30;99.90;;;;;;5013345;28;20022;-83
2022/09/19 06:47:32;;;;;;;1.00;0.20;;;9.30;99.90;;;;;;4997401;28;20034;-84
2022/09/19 06:50:00;;;;;;;1.52;0.28;;;9.40;99.90;;;;;;4997456;28;20037;-84
2022/09/19 06:52:26;;;;;;;1.67;0.28;;;9.40;99.90;;;;;;4995530;28;20033;-82
2022/09/19 06:54:52;;;;;;;1.05;0.17;;;9.40;99.90;;;;;;5010737;28;20032;-80
2022/09/19 06:57:19;;;;;;;0.82;0.20;;;9.40;99.90;;;;;;5018101;28;20053;-81
2022/09/19 06:59:45;;;;;;;0.82;0.28;;;9.50;99.90;;;;;;5021547;28;20026;-82
2022/09/19 07:02:13;;;;;;;1.10;0.20;;;9.50;99.90;;;;;;5009557;28;20014;-82
2022/09/19 07:04:39;;;;;;;1.38;0.10;;;9.60;99.90;;;;;;5008588;28;20029;-81
2022/09/19 07:07:05;;;;;;;2.70;0.45;;;9.60;99.90;;;;;;5015471;28;20038;-81
2022/09/19 07:09:31;;;;;;;0.95;0.10;;;9.70;99.90;;;;;;5019075;28;20038;-82
2022/09/19 07:11:57;;;;;;;2.58;0.20;;;9.70;99.90;;;;;;5019300;28;20093;-82
2022/09/19 07:14:26;;;;;;;0.77;0.20;;;9.70;99.90;;;;;;5014317;28;20022;-82
2022/09/19 07:16:51;;;;;;;1.08;0.25;;;9.70;99.90;;;;;;5017778;28;20026;-82
2022/09/19 07:19:17;;;;;;;1.48;0.20;;;9.70;99.90;;;;;;5015720;28;20096;-82
2022/09/19 07:21:43;;;;;;;3.47;0.35;;;9.70;99.90;;;;;;4997893;28;20551;-82
2022/09/19 07:24:09;;;;;;;1.17;0.20;;;9.70;99.90;;;;;;5018066;28;20037;-82
2022/09/19 07:26:35;;;;;;;0.77;0.10;;;9.70;99.90;;;;;;5003712;28;20038;-83
2022/09/19 07:29:01;;;;;;;1.88;0.20;;;9.70;99.90;;;;;;5010703;28;20026;-82
2022/09/19 07:31:27;;;;;;;0.45;0.20;;;9.80;99.90;;;;;;5000804;28;20037;-82
2022/09/19 07:33:53;;;;;;;1.67;0.20;;;9.90;99.90;;;;;;4999613;28;20034;-82
2022/09/19 07:36:23;;;;;;;2.28;0.10;;;9.80;99.90;;;;;;5012587;28;20088;-82
2022/09/19 07:38:49;;;;;;;2.50;0.40;;;9.90;99.90;;;;;;5006820;28;20018;-82
2022/09/19 07:41:16;;;;;;;2.45;0.98;;;10.00;99.90;;;;;;5013759;28;20030;-82
2022/09/19 07:43:42;;;;;;;0.50;0.25;;;10.00;99.90;;;;;;4997041;28;20034;-82
2022/09/19 07:46:08;;;;;;;1.13;0.10;;;10.10;99.90;;;;;;4992719;28;20044;-80
2022/09/19 07:48:34;;;;;;;1.63;0.20;;;10.10;99.90;;;;;;4999383;28;20033;-80
2022/09/19 07:51:02;;;;;;;3.60;0.30;;;10.10;99.90;;;;;;4999817;28;20045;-79
2022/09/19 07:53:28;;;;;;;1.27;0.60;;;10.20;99.90;;;;;;5020711;28;20029;-80
2022/09/19 07:55:56;;;;;;;1.30;0.20;;;10.20;99.90;;;;;;5012449;28;20592;-81
2022/09/19 07:58:24;;;;;;;0.45;0.20;;;10.30;99.90;;;;;;5005928;28;20021;-81
2022/09/19 08:00:50;;;;;;;2.25;0.13;;;10.30;99.90;;;;;;5015048;28;20113;-81
2022/09/19 08:03:18;;;;;;;5.60;0.80;;;10.30;99.90;;;;;;5000784;28;20030;-81
2022/09/19 08:05:52;;;;;;;3.65;0.20;;;10.40;99.90;;;;;;5012981;28;20033;-82
2022/09/19 08:08:21;;;;;;;2.15;0.40;;;10.50;99.90;;;;;;5012635;28;20030;-81
2022/09/19 08:10:46;;;;;;;1.20;0.40;;;10.50;99.90;;;;;;5013337;28;20030;-81
2022/09/19 08:13:15;;;;;;;1.83;0.40;;;10.60;99.90;;;;;;5004008;28;20030;-82
2022/09/19 08:15:42;;;;;;;1.00;0.20;;;10.70;99.90;;;;;;5000829;28;20053;-82
2022/09/19 08:18:13;;;;;;;3.15;0.25;;;10.70;99.90;;;;;;5014508;28;20064;-83
2022/09/19 08:20:40;;;;;;;0.70;0.20;;;10.80;99.90;;;;;;5012475;28;20334;-83
2022/09/19 08:23:09;;;;;;;3.65;0.30;;;10.90;99.90;;;;;;5012787;28;20053;-83
2022/09/19 08:25:37;;;;;;;5.88;1.08;;;11.00;99.90;;;;;;5010753;28;20030;-83
2022/09/19 08:28:03;;;;;;;2.28;0.43;;;10.80;99.90;;;;;;4999249;28;20034;-83
2022/09/19 08:30:30;;;;;;;2.13;0.25;;;10.90;99.90;;;;;;5004754;28;20026;-83
2022/09/19 08:32:56;;;;;;;5.40;0.63;;;10.80;99.90;;;;;;5012753;28;20030;-83
2022/09/19 08:35:23;;;;;;;1.88;0.32;;;10.80;99.90;;;;;;5007337;28;20041;-84
2022/09/19 08:37:54;;;;;;;0.85;0.28;;;10.80;99.90;;;;;;4981467;28;20030;-83
2022/09/19 08:40:32;;;;;;;2.80;0.20;;;10.80;99.90;;;;;;5009558;28;20099;-83
2022/09/19 08:42:58;;;;;;;1.30;0.52;;;10.90;99.90;;;;;;4992286;28;20479;-84
2022/09/19 08:45:55;;;;;;;1.08;0.35;;;10.90;99.90;;;;;;4996936;28;20101;-83
2022/09/19 08:48:30;;;;;;;1.83;0.30;;;11.00;99.90;;;;;;4986928;28;20026;-83
2022/09/19 08:51:03;;;;;;;0.90;0.40;;;11.10;99.90;;;;;;5010395;28;20025;-83
2022/09/19 08:53:37;;;;;;;9.77;1.00;;;11.20;99.90;;;;;;5011283;28;20072;-82
2022/09/19 08:56:04;;;;;;;1.85;0.20;;;11.40;99.90;;;;;;4999230;28;20096;-83
2022/09/19 08:58:34;;;;;;;3.30;0.68;;;11.60;99.90;;;;;;5013814;28;20018;-82
2022/09/19 09:01:06;;;;;;;1.25;0.35;;;11.60;99.90;;;;;;5012202;28;20018;-81
2022/09/19 09:03:47;;;;;;;2.10;0.30;;;11.50;99.90;;;;;;5013115;28;20033;-82
2022/09/19 09:06:13;;;;;;;1.83;0.20;;;11.50;99.90;;;;;;5003289;28;20026;-82
2022/09/19 09:09:10;;;;;;;1.38;0.38;;;11.50;99.90;;;;;;4999669;28;20041;-83
2022/09/19 09:11:58;;;;;;;1.30;0.28;;;11.60;99.90;;;;;;4999717;28;20070;-83
2022/09/19 09:14:47;;;;;;;2.55;0.25;;;11.60;99.90;;;;;;4994335;28;20095;-82
2022/09/19 09:17:32;;;;;;;0.90;0.20;;;11.60;99.90;;;;;;4993259;28;20046;-82
2022/09/19 09:20:16;;;;;;;2.72;0.82;;;11.60;99.90;;;;;;5012243;28;20104;-82
2022/09/19 09:22:58;;;;;;;0.70;0.20;;;11.50;99.90;;;;;;5009571;28;20389;-83
2022/09/19 09:25:30;;;;;;;2.33;0.30;;;11.50;99.90;;;;;;5014563;28;20062;-83
2022/09/19 09:28:20;;;;;;;0.82;0.20;;;11.60;99.90;;;;;;4999682;28;20040;-82
2022/09/19 09:30:49;;;;;;;1.70;0.20;;;11.80;99.90;;;;;;5008372;28;20042;-82
2022/09/19 09:33:29;;;;;;;3.03;0.40;;;11.90;99.90;;;;;;5010649;28;20502;-84
2022/09/19 09:36:19;;;;;;;1.80;0.30;;;12.10;99.90;;;;;;5001532;28;20077;-83
2022/09/19 09:38:52;;;;;;;0.90;0.20;;;12.30;99.90;;;;;;4999954;28;20371;-84
2022/09/19 09:41:50;;;;;;;0.93;0.50;;;12.60;99.90;;;;;;5015261;28;20030;-83
2022/09/19 09:44:54;;;;;;;3.28;1.05;;;12.30;99.90;;;;;;5008562;28;20029;-83
2022/09/19 09:47:44;;;;;;;0.47;0.22;;;12.40;99.90;;;;;;4995837;28;20065;-83
2022/09/19 09:50:53;;;;;;;0.80;0.10;;;12.50;99.90;;;;;;5013761;28;20030;-82
2022/09/19 09:53:43;;;;;;;1.52;0.30;;;12.40;99.90;;;;;;4958087;28;20037;-83
2022/09/19 09:56:38;;;;;;;2.63;0.30;;;12.50;99.90;;;;;;5010015;28;20022;-83
2022/09/19 10:05:54;;;;;;;1.05;0.40;;;12.50;99.90;;;;;;5008008;28;20033;-83
2022/09/19 10:08:30;;;;;;;0.50;0.10;;;12.40;99.90;;;;;;5013499;28;20029;-83
2022/09/19 10:11:14;;;;;;;1.25;0.57;;;12.40;99.90;;;;;;5000355;28;20093;-82
2022/09/19 10:14:01;;;;;;;0.47;0.20;;;12.40;99.90;;;;;;4997185;28;20018;-83
2022/09/19 10:16:32;;;;;;;0.98;0.38;;;12.40;99.90;;;;;;4997198;28;20033;-83
2022/09/19 10:19:27;;;;;;;2.65;0.35;;;12.30;99.90;;;;;;5011460;28;20018;-82
2022/09/19 10:21:54;;;;;;;0.70;0.22;;;12.40;99.90;;;;;;5017008;28;20022;-81
2022/09/19 10:24:56;;;;;;;1.25;0.32;;;12.50;99.90;;;;;;4999668;28;20045;-82
2022/09/19 10:27:31;;;;;;;1.60;0.30;;;12.40;99.90;;;;;;5003195;28;20037;-83
2022/09/19 10:30:15;;;;;;;1.30;0.20;;;12.60;99.90;;;;;;5014627;28;20036;-83
2022/09/19 10:32:43;;;;;;;1.45;0.30;;;13.00;99.90;;;;;;5001156;28;20052;-83
2022/09/19 10:35:26;;;;;;;3.45;0.20;;;13.20;99.90;;;;;;4997672;28;20439;-83
2022/09/19 10:38:16;;;;;;;4.25;0.35;;;13.20;99.90;;;;;;5011085;28;20033;-83
2022/09/19 10:40:51;;;;;;;0.45;0.10;;;13.30;99.90;;;;;;5014183;28;20033;-82
2022/09/19 10:43:30;;;;;;;0.25;0.10;;;13.30;99.90;;;;;;4999971;28;20120;-82
2022/09/19 10:45:58;;;;;;;1.17;0.30;;;13.60;99.90;;;;;;5006442;28;20029;-80
2022/09/19 10:48:31;;;;;;;2.63;0.22;;;13.60;99.90;;;;;;5007132;28;20048;-80
2022/09/19 10:51:02;;;;;;;0.70;0.28;;;13.80;99.90;;;;;;5015192;28;20030;-82
2022/09/19 10:53:30;;;;;;;3.42;0.35;;;14.30;99.90;;;;;;4998231;28;20036;-82
2022/09/19 10:56:02;;;;;;;1.00;0.20;;;14.40;99.90;;;;;;5010058;28;20034;-82
2022/09/19 10:58:35;;;;;;;0.82;0.20;;;14.50;99.90;;;;;;5006047;28;20026;-82
2022/09/19 11:01:02;;;;;;;0.20;0.20;;;14.40;99.90;;;;;;5011812;28;20041;-82
2022/09/19 11:03:35;;;;;;;2.40;0.63;;;14.20;99.90;;;;;;5002687;28;20073;-82
2022/09/19 11:06:13;;;;;;;0.43;0.20;;;13.90;99.90;;;;;;5010675;28;20542;-83
2022/09/19 11:08:48;;;;;;;1.42;0.17;;;13.90;99.90;;;;;;4994159;28;20053;-83
2022/09/19 11:11:22;;;;;;;0.77;0.10;;;13.80;99.90;;;;;;5008110;28;20481;-83
2022/09/19 11:14:44;;;;;;;0.70;0.20;;;13.70;99.90;;;;;;5007735;28;20050;-84
2022/09/19 11:17:31;;;;;;;1.02;0.20;;;13.80;99.90;;;;;;4910825;29;20509;-83
2022/09/19 11:20:16;;;;;;;0.55;0.15;;;14.00;99.90;;;;;;4912124;29;20374;-83
2022/09/19 11:22:54;;;;;;;1.15;0.20;;;14.20;99.90;;;;;;4981266;28;20029;-83
2022/09/19 11:26:08;;;;;;;2.90;0.28;;;14.40;99.90;;;;;;5011699;28;20018;-84
2022/09/19 11:29:12;;;;;;;2.88;0.52;;;14.50;99.90;;;;;;4980917;28;20026;-83
2022/09/19 11:32:03;;;;;;;1.48;0.30;;;14.40;99.90;;;;;;4999159;28;20474;-83
2022/09/19 11:34:36;;;;;;;0.43;0.10;;;14.50;99.90;;;;;;4992090;28;20022;-84
2022/09/19 11:37:25;;;;;;;0.38;0.10;;;14.30;99.90;;;;;;5011639;28;20069;-83
2022/09/19 11:40:02;;;;;;;1.77;0.20;;;14.20;99.90;;;;;;4990445;28;20041;-84
2022/09/19 11:42:47;;;;;;;0.57;0.43;;;14.00;99.90;;;;;;4998534;28;20029;-83
2022/09/19 11:45:19;;;;;;;1.00;0.20;;;13.90;99.90;;;;;;5011946;28;20033;-84
2022/09/19 11:47:59;;;;;;;1.23;0.13;;;13.90;99.90;;;;;;4995743;28;20069;-84
2022/09/19 11:50:37;;;;;;;1.13;0.20;;;13.80;99.90;;;;;;4999264;28;20030;-84
2022/09/19 11:53:30;;;;;;;1.95;0.30;;;13.60;99.90;;;;;;4999839;28;20040;-83
2022/09/19 11:56:17;;;;;;;1.30;0.20;;;13.60;99.90;;;;;;4993067;28;20029;-82
2022/09/19 11:59:03;;;;;;;0.20;0.05;;;13.50;99.90;;;;;;4994965;28;20030;-83
2022/09/19 12:02:21;;;;;;;1.38;0.13;;;13.50;99.90;;;;;;4998553;28;20025;-82
2022/09/19 12:05:05;;;;;;;1.25;0.30;;;13.40;99.90;;;;;;5012960;28;20025;-82
2022/09/19 12:08:22;;;;;;;1.38;0.15;;;13.40;99.90;;;;;;5000433;28;20030;-82
2022/09/19 12:10:52;;;;;;;0.55;0.10;;;13.40;99.90;;;;;;4912776;29;20036;-82
2022/09/19 12:13:42;;;;;;;0.52;0.20;;;13.50;99.90;;;;;;4995030;28;20602;-84
2022/09/19 12:16:24;;;;;;;0.52;0.10;;;13.50;99.90;;;;;;5004406;28;20092;-83
2022/09/19 12:19:10;;;;;;;;;;;13.30;99.90;;;;;;5011461;28;20034;-83
2022/09/19 12:21:46;;;;;;;1.42;0.15;;;13.30;99.90;;;;;;4998882;28;20222;-84
2022/09/19 12:24:53;;;;;;;0.57;0.13;;;13.50;99.90;;;;;;4994533;28;20058;-84
2022/09/19 12:27:55;;;;;;;1.52;0.30;;;13.70;99.90;;;;;;5029899;28;20066;-83
2022/09/19 12:30:23;;;;;;;0.15;0.10;;;13.90;99.90;;;;;;4942221;29;20060;-84
2022/09/19 12:33:17;;;;;;;0.70;0.13;;;14.10;99.90;;;;;;4981331;28;20062;-83
2022/09/19 12:35:51;;;;;;;2.70;0.30;;;13.90;99.90;;;;;;5005721;28;20026;-83
2022/09/19 12:38:46;;;;;;;1.15;0.47;;;14.00;99.90;;;;;;5020267;28;20057;-84
2022/09/19 12:41:40;;;;;;;1.00;0.30;;;14.10;99.90;;;;;;5019718;28;20034;-83
2022/09/19 12:44:31;;;;;;;1.00;0.35;;;14.20;99.90;;;;;;5011328;28;20031;-83
2022/09/19 12:47:21;;;;;;;5.32;0.65;;;14.30;99.90;;;;;;5003943;28;20103;-84
2022/09/19 12:49:56;;;;;;;0.85;0.10;;;14.60;99.90;;;;;;5003759;28;20033;-83
2022/09/19 12:52:34;;;;;;;1.85;0.20;;;14.70;99.90;;;;;;5007740;28;20026;-83
2022/09/19 12:55:07;;;;;;;0.38;0.20;;;14.90;99.90;;;;;;5012512;28;20030;-83
2022/09/19 12:57:47;;;;;;;0.75;0.20;;;15.30;99.90;;;;;;5021339;28;21148;-83
2022/09/19 13:00:14;;;;;;;0.45;0.20;;;15.30;99.90;;;;;;5003478;28;20086;-83
2022/09/19 13:02:59;;;;;;;1.27;0.13;;;15.10;99.90;;;;;;5005152;28;20023;-83
2022/09/19 13:05:40;;;;;;;1.30;0.20;;;15.10;99.90;;;;;;5005928;28;20026;-83
2022/09/19 13:08:17;;;;;;;0.68;0.15;;;14.90;99.90;;;;;;5013842;28;20118;-83
2022/09/19 13:10:54;;;;;;;0.68;0.30;;;14.60;99.90;;;;;;5023432;28;20022;-83
2022/09/19 13:13:29;;;;;;;2.22;0.30;;;14.50;99.90;;;;;;4998966;28;20030;-83
2022/09/19 13:15:58;;;;;;;0.93;0.15;;;14.30;99.90;;;;;;5015692;28;20018;-83
2022/09/19 13:24:11;;;;;;;0.47;0.20;;;14.20;99.90;;;;;;5018574;28;20689;-83
2022/09/19 13:26:39;;;;;;;0.52;0.10;;;14.30;99.90;;;;;;5002159;28;20022;-83
2022/09/19 13:29:28;;;;;;;2.25;0.10;;;14.50;99.90;;;;;;5004187;28;20029;-83
2022/09/19 13:31:57;;;;;;;0.30;0.13;;;14.60;99.90;;;;;;4989827;28;20025;-83
2022/09/19 13:34:59;;;;;;;0.22;0.10;;;14.60;99.90;;;;;;4996921;28;20029;-83
2022/09/19 13:37:32;;;;;;;;;;;14.80;99.90;;;;;;5012438;28;20372;-83
2022/09/19 13:40:18;;;;;;;1.40;0.00;;;14.80;99.90;;;;;;5010100;28;19964;-83
2022/09/19 13:42:59;;;;;;;0.40;0.10;;;14.70;99.90;;;;;;5002108;28;20554;-83
2022/09/19 13:45:37;;;;;;;0.67;0.17;;;14.60;99.90;;;;;;5015578;28;20030;-83
2022/09/19 13:48:42;;;;;;;2.63;0.10;;;14.60;99.90;;;;;;5012968;28;20026;-82